CAL532 RCTP-WMKP
Flight info
| Callsign | CAL532 |
|---|---|
| Flight time | N/A |
| Altitude | 32000 |
| Route | CHALI1C CHALI T3 AJENT T5 PARPA A577 KABAM N892 MIGUG/K0926F320 N892 MAPNO/K0915F340 M765 BITOD/N0494F340 M765 VKB W546 BETNU BETNU1E |
| Aircraft | B77L/H-SDE1E2E3FGHIJ2J3J4J5M1RWXY/LB1D1 |
Departure
| Time | N/A |
|---|---|
| Airport | Taiwan Taoyuan International Airport (RCTP) |
Arrival
| Time | 2026-05-01 07:29 |
|---|---|
| Airport | Penang International Airport (WMKP) |
| Time | Latitude | Longitude | Altitude | Speed | Heading |
|---|---|---|---|---|---|
| 2026-05-01 07:23 | 5.09055 | 100.19440 | 1977 ft | 207 kts | 288° |
| 2026-05-01 07:23 | 5.10097 | 100.16973 | 1999 ft | 187 kts | 294° |
| 2026-05-01 07:24 | 5.10693 | 100.15847 | 1987 ft | 180 kts | 297° |
| 2026-05-01 07:24 | 5.11500 | 100.14898 | 1995 ft | 184 kts | 325° |
| 2026-05-01 07:24 | 5.12686 | 100.14373 | 2024 ft | 190 kts | 345° |
| 2026-05-01 07:24 | 5.14001 | 100.14265 | 2011 ft | 187 kts | 4° |
| 2026-05-01 07:25 | 5.15198 | 100.14722 | 1991 ft | 183 kts | 38° |
| 2026-05-01 07:25 | 5.16228 | 100.15516 | 2032 ft | 190 kts | 38° |
| 2026-05-01 07:25 | 5.17252 | 100.16368 | 2021 ft | 192 kts | 42° |
| 2026-05-01 07:25 | 5.18246 | 100.17255 | 1995 ft | 189 kts | 43° |
| 2026-05-01 07:26 | 5.19204 | 100.18125 | 1999 ft | 188 kts | 43° |
| 2026-05-01 07:26 | 5.20171 | 100.19007 | 1992 ft | 189 kts | 43° |
| 2026-05-01 07:26 | 5.21153 | 100.19901 | 1942 ft | 195 kts | 43° |
| 2026-05-01 07:26 | 5.22158 | 100.20817 | 1660 ft | 192 kts | 42° |
| 2026-05-01 07:27 | 5.23129 | 100.21699 | 1401 ft | 185 kts | 43° |
| 2026-05-01 07:27 | 5.24074 | 100.22559 | 1206 ft | 184 kts | 43° |
| 2026-05-01 07:27 | 5.25029 | 100.23429 | 964 ft | 184 kts | 42° |
| 2026-05-01 07:27 | 5.25938 | 100.24255 | 755 ft | 185 kts | 43° |
| 2026-05-01 07:28 | 5.26895 | 100.25129 | 469 ft | 186 kts | 42° |
| 2026-05-01 07:28 | 5.27847 | 100.25989 | 243 ft | 183 kts | 41° |
| 2026-05-01 07:28 | 5.28750 | 100.26809 | 50 ft | 169 kts | 42° |
| 2026-05-01 07:28 | 5.29551 | 100.27537 | 28 ft | 133 kts | 42° |
| 2026-05-01 07:29 | 5.30101 | 100.28033 | 30 ft | 80 kts | 42° |
| 2026-05-01 07:29 | 5.30384 | 100.28295 | 28 ft | 36 kts | 41° |
| 2026-05-01 07:29 | 5.30550 | 100.28445 | 28 ft | 31 kts | 43° |
| 2026-05-01 07:29 | 5.30705 | 100.28583 | 29 ft | 30 kts | 42° |
| 2026-05-01 07:30 | 5.30845 | 100.28663 | 29 ft | 19 kts | 341° |
| 2026-05-01 07:30 | 5.30904 | 100.28558 | 27 ft | 19 kts | 259° |
| 2026-05-01 07:30 | 5.30821 | 100.28460 | 27 ft | 19 kts | 222° |
| 2026-05-01 07:30 | 5.30725 | 100.28373 | 27 ft | 19 kts | 223° |
| 2026-05-01 07:31 | 5.30632 | 100.28282 | 27 ft | 18 kts | 230° |
| 2026-05-01 07:31 | 5.30321 | 100.27998 | 27 ft | 24 kts | 224° |
| 2026-05-01 07:32 | 5.30087 | 100.27766 | 27 ft | 24 kts | 224° |
| 2026-05-01 07:32 | 5.29968 | 100.27654 | 27 ft | 23 kts | 223° |
| 2026-05-01 07:33 | 5.29731 | 100.27437 | 27 ft | 23 kts | 222° |
| 2026-05-01 07:33 | 5.29611 | 100.27327 | 26 ft | 23 kts | 223° |
| 2026-05-01 07:33 | 5.29370 | 100.27109 | 27 ft | 23 kts | 223° |
| 2026-05-01 07:34 | 5.29253 | 100.27004 | 27 ft | 20 kts | 220° |
| 2026-05-01 07:34 | 5.29075 | 100.27036 | 30 ft | 15 kts | 133° |
| 2026-05-01 07:34 | 5.28979 | 100.27075 | 29 ft | 15 kts | 173° |
| 2026-05-01 07:35 | 5.28886 | 100.27086 | 28 ft | 12 kts | 173° |
| 2026-05-01 07:35 | 5.28806 | 100.27100 | 28 ft | 10 kts | 163° |
| 2026-05-01 07:35 | 5.28753 | 100.27121 | 27 ft | 7 kts | 146° |
| 2026-05-01 07:35 | 5.28732 | 100.27144 | 27 ft | 3 kts | 130° |
| 2026-05-01 07:36 | 5.28721 | 100.27157 | 27 ft | 1 kts | 130° |
| 2026-05-01 07:36 | 5.28719 | 100.27159 | 27 ft | 0 kts | 130° |
| 2026-05-01 07:36 | 5.28717 | 100.27161 | 27 ft | 0 kts | 130° |